createdAt,value
2022-10-05T00:01:56.117Z,91.10
2022-10-05T00:04:13.302Z,91.80
2022-10-05T00:06:30.325Z,90.59
2022-10-05T00:08:48.239Z,91.33
2022-10-05T00:11:05.231Z,91.38
2022-10-05T00:13:22.414Z,90.47
2022-10-05T00:15:39.400Z,91.62
2022-10-05T00:17:59.305Z,92.76
2022-10-05T00:20:16.603Z,91.85
2022-10-05T00:22:33.744Z,91.42
2022-10-05T00:24:51.895Z,91.91
2022-10-05T00:27:08.940Z,91.11
2022-10-05T00:29:26.079Z,90.80
2022-10-05T00:31:43.171Z,90.99
2022-10-05T00:34:00.112Z,90.77
2022-10-05T00:36:17.344Z,90.92
2022-10-05T00:38:35.579Z,90.60
2022-10-05T00:40:52.783Z,90.94
2022-10-05T00:43:09.810Z,89.78
2022-10-05T00:45:26.753Z,89.25
2022-10-05T00:47:45.057Z,88.21
2022-10-05T00:50:02.299Z,89.67
2022-10-05T00:52:19.443Z,88.94
2022-10-05T00:54:36.340Z,89.73
2022-10-05T00:56:53.622Z,91.23
2022-10-05T00:59:10.822Z,90.68
2022-10-05T01:01:28.120Z,91.92
2022-10-05T01:03:45.278Z,90.70
2022-10-05T01:06:02.239Z,91.87
2022-10-05T01:08:19.140Z,92.38
2022-10-05T01:10:36.452Z,92.35
2022-10-05T01:12:53.720Z,92.02
2022-10-05T01:15:10.744Z,92.48
2022-10-05T01:17:28.665Z,91.82
2022-10-05T01:19:45.842Z,92.63
2022-10-05T01:22:02.869Z,92.79
2022-10-05T01:24:20.443Z,93.18
2022-10-05T01:26:37.424Z,92.94
2022-10-05T01:28:55.378Z,92.41
2022-10-05T01:31:12.781Z,92.87
2022-10-05T01:33:29.775Z,92.21
2022-10-05T01:35:46.787Z,91.89
2022-10-05T01:38:04.030Z,91.75
2022-10-05T01:40:21.170Z,91.92
2022-10-05T01:42:38.148Z,91.40
2022-10-05T01:44:55.367Z,91.86
2022-10-05T01:47:12.312Z,91.43
2022-10-05T01:49:29.344Z,91.43
2022-10-05T01:51:47.308Z,91.02
2022-10-05T01:54:04.279Z,91.88
2022-10-05T01:56:22.279Z,90.12
2022-10-05T01:58:39.187Z,90.30
2022-10-05T02:00:57.708Z,91.70
2022-10-05T02:03:14.735Z,91.71
2022-10-05T02:05:32.358Z,91.13
2022-10-05T02:07:50.361Z,92.33
2022-10-05T02:10:10.800Z,92.52
2022-10-05T02:12:28.079Z,91.81
2022-10-05T02:14:45.369Z,92.48
2022-10-05T02:17:02.344Z,92.28
2022-10-05T02:19:19.640Z,91.50
2022-10-05T02:21:38.486Z,92.32
2022-10-05T02:23:55.465Z,91.14
2022-10-05T02:26:12.753Z,91.29
2022-10-05T02:28:30.024Z,91.86
2022-10-05T02:30:47.325Z,91.86
2022-10-05T02:33:04.422Z,91.19
2022-10-05T02:35:22.290Z,90.96
2022-10-05T02:37:39.260Z,91.90
2022-10-05T02:39:56.461Z,92.09
2022-10-05T02:42:15.569Z,91.31
2022-10-05T02:44:32.799Z,90.88
2022-10-05T02:46:54.513Z,91.63
2022-10-05T02:49:14.060Z,91.35
2022-10-05T02:51:31.313Z,91.93
2022-10-05T02:53:48.609Z,91.15
2022-10-05T02:56:05.582Z,91.11
2022-10-05T02:58:22.835Z,91.43
2022-10-05T03:00:39.852Z,91.98
2022-10-05T03:02:58.099Z,91.35
2022-10-05T03:05:15.065Z,91.06
2022-10-05T03:07:32.042Z,91.72
2022-10-05T03:09:50.423Z,92.28
2022-10-05T03:12:08.668Z,91.23
2022-10-05T03:14:25.644Z,92.07
2022-10-05T03:16:42.812Z,91.47
2022-10-05T03:19:00.081Z,91.95
2022-10-05T03:21:17.936Z,91.48
2022-10-05T03:23:34.847Z,91.93
2022-10-05T03:25:51.983Z,92.32
2022-10-05T03:28:10.119Z,91.35
2022-10-05T03:30:27.312Z,91.74
2022-10-05T03:32:45.294Z,91.85
2022-10-05T03:35:02.322Z,92.04
2022-10-05T03:37:20.580Z,92.23
2022-10-05T03:39:37.779Z,92.00
2022-10-05T03:41:56.139Z,91.73
2022-10-05T03:44:13.295Z,92.13
2022-10-05T03:46:30.281Z,92.04
2022-10-05T03:48:47.478Z,90.92
2022-10-05T03:51:04.799Z,91.45
2022-10-05T03:53:21.771Z,91.93
2022-10-05T03:55:38.744Z,91.46
2022-10-05T03:57:56.044Z,91.86
2022-10-05T04:00:13.945Z,91.83
2022-10-05T04:02:30.975Z,91.07
2022-10-05T04:04:51.089Z,91.54
2022-10-05T04:07:08.128Z,91.87
2022-10-05T04:09:25.367Z,92.13
2022-10-05T04:11:42.393Z,90.76
2022-10-05T04:13:59.462Z,91.88
2022-10-05T04:16:16.722Z,91.30
2022-10-05T04:18:34.082Z,91.59
2022-10-05T04:20:53.744Z,91.09
2022-10-05T04:23:11.611Z,91.49
2022-10-05T04:25:29.034Z,91.83
2022-10-05T04:27:48.705Z,92.04
2022-10-05T04:30:08.391Z,92.35
2022-10-05T04:32:25.572Z,91.32
2022-10-05T04:34:42.522Z,91.40
2022-10-05T04:37:03.626Z,92.37
2022-10-05T04:39:20.528Z,92.48
2022-10-05T04:41:37.517Z,92.12
2022-10-05T04:43:54.544Z,91.64
2022-10-05T04:46:12.520Z,91.41
2022-10-05T04:48:30.831Z,91.63
2022-10-05T04:50:49.895Z,91.97
2022-10-05T04:53:06.918Z,92.72
2022-10-05T04:55:24.183Z,92.49
2022-10-05T04:57:41.179Z,92.69
2022-10-05T04:59:58.064Z,91.32
2022-10-05T05:02:16.993Z,91.23
2022-10-05T05:04:34.172Z,91.53
2022-10-05T05:06:51.162Z,92.89
2022-10-05T05:09:08.413Z,91.39
2022-10-05T05:11:25.612Z,91.62
2022-10-05T05:13:42.544Z,91.20
2022-10-05T05:15:59.834Z,92.49
2022-10-05T05:18:17.064Z,92.21
2022-10-05T05:20:34.073Z,91.37
2022-10-05T05:22:51.737Z,90.97
2022-10-05T05:25:08.944Z,91.67
2022-10-05T05:27:27.159Z,91.96
2022-10-05T05:29:44.241Z,92.53
2022-10-05T05:32:02.279Z,92.79
2022-10-05T05:34:19.499Z,92.33
2022-10-05T05:36:37.558Z,91.53
2022-10-05T05:38:56.891Z,91.71
2022-10-05T05:41:13.921Z,91.79
2022-10-05T05:43:30.931Z,91.77
2022-10-05T05:45:48.317Z,91.87
2022-10-05T05:48:06.327Z,93.17
2022-10-05T05:50:23.361Z,93.07
2022-10-05T05:52:40.579Z,93.56
2022-10-05T05:54:58.826Z,93.08
2022-10-05T05:57:16.045Z,92.18
2022-10-05T05:59:34.078Z,92.04
2022-10-05T06:01:51.249Z,93.67
2022-10-05T06:04:08.234Z,93.17
2022-10-05T06:06:25.548Z,91.82
2022-10-05T06:08:42.526Z,92.43
2022-10-05T06:10:59.703Z,93.81
2022-10-05T06:13:16.907Z,92.80
2022-10-05T06:15:33.802Z,93.76
2022-10-05T06:17:51.805Z,93.45
2022-10-05T06:20:08.708Z,92.88
2022-10-05T06:22:25.965Z,94.35
2022-10-05T06:24:42.976Z,94.59
2022-10-05T06:26:59.962Z,94.27
2022-10-05T06:29:17.250Z,93.52
2022-10-05T06:31:34.526Z,93.23
2022-10-05T06:33:51.621Z,93.22
2022-10-05T06:36:09.010Z,93.36
2022-10-05T06:38:35.351Z,93.32
2022-10-05T06:40:53.265Z,94.80
2022-10-05T06:43:11.196Z,93.18
2022-10-05T06:45:28.207Z,94.14
2022-10-05T06:47:45.184Z,93.28
2022-10-05T06:50:02.395Z,93.94
2022-10-05T06:52:19.372Z,93.28
2022-10-05T06:54:37.392Z,93.41
2022-10-05T06:56:54.401Z,93.20
2022-10-05T06:59:11.379Z,93.20
2022-10-05T07:01:28.710Z,93.11
2022-10-05T07:03:46.005Z,92.46
2022-10-05T07:06:03.238Z,92.17
2022-10-05T07:08:20.441Z,91.50
2022-10-05T07:10:37.698Z,91.87
2022-10-05T07:12:54.966Z,92.60
2022-10-05T07:15:11.883Z,93.12
2022-10-05T07:17:31.923Z,91.73
2022-10-05T07:19:48.914Z,92.64
2022-10-05T07:22:11.143Z,92.38
2022-10-05T07:24:28.617Z,92.08
2022-10-05T07:26:45.810Z,91.54
2022-10-05T07:29:03.095Z,92.17
2022-10-05T07:31:20.297Z,91.73
2022-10-05T07:33:38.540Z,90.70
2022-10-05T07:35:55.553Z,91.60
2022-10-05T07:38:12.878Z,91.32
2022-10-05T07:40:32.330Z,91.65
2022-10-05T07:42:52.285Z,91.40
2022-10-05T07:45:10.731Z,91.44
2022-10-05T07:47:27.672Z,91.49
2022-10-05T07:49:47.149Z,91.43
2022-10-05T07:52:04.474Z,91.57
2022-10-05T07:54:21.839Z,92.14
2022-10-05T07:56:38.797Z,91.75
2022-10-05T07:58:56.123Z,91.69
2022-10-05T08:01:14.382Z,92.21
2022-10-05T08:03:31.638Z,92.13
2022-10-05T08:05:48.703Z,91.53
2022-10-05T08:08:05.859Z,91.81
2022-10-05T08:10:23.172Z,92.08
2022-10-05T08:12:41.226Z,91.76
2022-10-05T08:14:58.558Z,92.38
2022-10-05T08:17:15.486Z,92.33
2022-10-05T08:19:33.735Z,92.45
2022-10-05T08:21:54.150Z,92.08
2022-10-05T08:24:12.582Z,92.41
2022-10-05T08:26:29.633Z,92.49
2022-10-05T08:28:47.830Z,92.04
2022-10-05T08:31:04.994Z,92.64
2022-10-05T08:33:21.866Z,92.07
2022-10-05T08:35:39.861Z,93.12
2022-10-05T08:37:57.983Z,92.78
2022-10-05T08:40:16.006Z,91.66
2022-10-05T08:42:33.238Z,91.90
2022-10-05T08:44:51.309Z,91.93
2022-10-05T08:47:08.362Z,91.85
2022-10-05T08:49:32.828Z,92.15
2022-10-05T08:51:52.027Z,92.06
2022-10-05T08:54:10.396Z,93.38
2022-10-05T08:56:29.740Z,93.19
2022-10-05T08:58:47.001Z,93.18
2022-10-05T09:01:04.370Z,92.70
2022-10-05T09:03:22.810Z,91.39
2022-10-05T09:05:41.035Z,90.87
2022-10-05T09:07:59.986Z,89.93
2022-10-05T09:10:17.313Z,90.70
2022-10-05T09:12:34.969Z,90.92
2022-10-05T09:15:07.142Z,89.85
2022-10-05T09:17:29.273Z,87.89
2022-10-05T09:19:46.418Z,88.47
2022-10-05T09:22:04.583Z,87.67
2022-10-05T09:24:21.640Z,87.33
2022-10-05T09:29:13.219Z,86.14
2022-10-05T09:31:31.170Z,85.51
2022-10-05T09:33:51.630Z,85.03
2022-10-05T09:36:09.736Z,86.14
2022-10-05T09:38:26.944Z,87.45
2022-10-05T09:40:44.237Z,86.87
2022-10-05T09:43:01.243Z,84.77
2022-10-05T09:45:21.337Z,84.69
2022-10-05T09:47:38.830Z,84.71
2022-10-05T09:49:55.809Z,82.92
2022-10-05T09:52:17.969Z,82.31
2022-10-05T09:54:36.459Z,79.65
2022-10-05T09:56:54.708Z,80.40
2022-10-05T09:59:12.004Z,77.48
2022-10-05T10:01:33.710Z,78.83
2022-10-05T10:03:52.483Z,77.32
2022-10-05T10:06:09.517Z,76.54
2022-10-05T10:08:27.210Z,75.53
2022-10-05T10:10:44.502Z,74.63
2022-10-05T10:13:01.532Z,75.69
2022-10-05T10:15:18.513Z,75.29
2022-10-05T10:17:36.761Z,75.66
2022-10-05T10:19:54.180Z,76.80
2022-10-05T10:22:12.117Z,74.75
2022-10-05T10:24:29.113Z,75.14
2022-10-05T10:26:46.170Z,72.27
2022-10-05T10:29:03.182Z,74.94
2022-10-05T10:31:20.671Z,74.63
2022-10-05T10:33:37.653Z,72.45
2022-10-05T10:35:54.633Z,74.15
2022-10-05T10:38:11.626Z,72.97
2022-10-05T10:40:30.572Z,74.50
2022-10-05T10:42:47.561Z,75.15
2022-10-05T10:45:04.630Z,75.28
2022-10-05T10:47:21.613Z,76.36
2022-10-05T10:49:38.562Z,74.86
2022-10-05T10:51:55.570Z,77.01
2022-10-05T10:54:12.565Z,75.40
2022-10-05T10:56:29.909Z,75.66
2022-10-05T10:58:46.883Z,76.51
2022-10-05T11:01:05.693Z,75.75
2022-10-05T11:03:22.714Z,77.17
2022-10-05T11:05:39.987Z,76.66
2022-10-05T11:07:56.984Z,75.60
2022-10-05T11:10:14.317Z,77.01
2022-10-05T11:12:34.572Z,76.53
2022-10-05T11:14:51.927Z,76.69
2022-10-05T11:17:09.945Z,76.77
2022-10-05T11:19:35.175Z,77.15
2022-10-05T11:22:03.723Z,77.61
2022-10-05T11:24:21.014Z,76.43
2022-10-05T11:26:38.014Z,78.02
2022-10-05T11:28:55.022Z,77.09
2022-10-05T11:31:12.273Z,78.02
2022-10-05T11:33:29.278Z,78.40
2022-10-05T11:35:47.243Z,77.47
2022-10-05T11:38:05.217Z,78.11
2022-10-05T11:40:23.452Z,77.90
2022-10-05T11:42:40.741Z,79.05
2022-10-05T11:44:57.770Z,78.96
2022-10-05T11:47:15.012Z,77.82
2022-10-05T11:49:32.291Z,77.16
2022-10-05T11:51:49.478Z,77.51
2022-10-05T11:54:07.027Z,77.81
2022-10-05T11:56:24.023Z,78.95
2022-10-05T11:58:41.431Z,78.55
2022-10-05T12:00:58.706Z,78.29
2022-10-05T12:03:15.798Z,77.21
2022-10-05T12:05:32.909Z,76.45
2022-10-05T12:07:50.187Z,76.59
2022-10-05T12:10:07.102Z,77.15
2022-10-05T12:12:24.117Z,77.58
2022-10-05T12:14:41.167Z,76.61
2022-10-05T12:16:58.416Z,74.53
2022-10-05T12:19:15.924Z,76.04
2022-10-05T12:21:32.943Z,74.60
2022-10-05T12:23:49.895Z,73.35
2022-10-05T12:26:07.173Z,73.85
2022-10-05T12:28:24.323Z,73.48
2022-10-05T12:30:41.282Z,73.33
2022-10-05T12:33:02.025Z,72.57
2022-10-05T12:35:36.582Z,73.42
2022-10-05T12:37:56.744Z,70.26
2022-10-05T12:40:13.782Z,69.97
2022-10-05T12:42:30.701Z,70.64
2022-10-05T12:44:47.654Z,68.71
2022-10-05T12:47:05.005Z,68.35
2022-10-05T12:49:22.193Z,68.38
2022-10-05T12:51:39.474Z,66.24
2022-10-05T12:53:56.715Z,67.91
2022-10-05T12:56:14.066Z,66.94
2022-10-05T12:58:31.395Z,65.94
2022-10-05T13:00:48.444Z,67.65
2022-10-05T13:22:43.261Z,64.87
2022-10-05T13:25:01.653Z,66.00
2022-10-05T13:27:18.931Z,65.82
2022-10-05T13:29:35.891Z,62.68
2022-10-05T13:31:52.926Z,64.86
2022-10-05T13:34:10.848Z,64.08
2022-10-05T13:36:30.279Z,61.35
2022-10-05T13:38:47.823Z,63.22
2022-10-05T13:41:05.150Z,63.68
2022-10-05T13:43:23.491Z,65.05
2022-10-05T13:45:41.005Z,62.93
2022-10-05T13:47:59.096Z,64.65
2022-10-05T13:50:16.132Z,63.34
2022-10-05T13:52:33.129Z,63.66
2022-10-05T13:54:50.126Z,63.02
2022-10-05T13:57:07.313Z,61.51
2022-10-05T13:59:24.583Z,60.10
2022-10-05T14:01:41.812Z,62.73
2022-10-05T14:03:59.122Z,63.65
2022-10-05T14:06:17.042Z,62.47
2022-10-05T14:08:34.275Z,60.96
2022-10-05T14:10:51.257Z,61.90
2022-10-05T14:15:26.100Z,62.17
2022-10-05T14:17:43.517Z,63.91
2022-10-05T14:20:01.783Z,61.55
2022-10-05T14:22:18.797Z,59.97
2022-10-05T14:24:44.644Z,63.49
2022-10-05T14:27:02.152Z,62.25
2022-10-05T14:29:19.417Z,64.30
2022-10-05T14:31:36.426Z,63.42
2022-10-05T14:33:54.423Z,61.23
2022-10-05T14:36:12.256Z,61.92
2022-10-05T14:38:29.361Z,60.70
2022-10-05T14:40:47.600Z,61.39
2022-10-05T14:43:05.623Z,60.63
2022-10-05T14:45:26.082Z,60.29
2022-10-05T14:47:43.313Z,60.77
2022-10-05T14:50:00.332Z,61.96
2022-10-05T14:52:17.234Z,60.97
2022-10-05T14:54:34.185Z,61.07
2022-10-05T14:56:52.139Z,60.81
2022-10-05T14:59:09.129Z,61.44
2022-10-05T15:01:26.083Z,63.27
2022-10-05T15:03:43.463Z,61.32
2022-10-05T15:06:01.680Z,61.18
2022-10-05T15:08:18.736Z,62.05
2022-10-05T15:10:36.699Z,61.70
2022-10-05T15:12:53.715Z,59.91
2022-10-05T15:15:11.723Z,59.40
2022-10-05T15:17:28.956Z,58.78
2022-10-05T15:19:46.994Z,59.17
2022-10-05T15:22:04.554Z,58.16
2022-10-05T15:24:22.404Z,58.23
2022-10-05T15:26:40.200Z,56.55
2022-10-05T15:28:57.505Z,55.53
2022-10-05T15:31:14.748Z,54.88
2022-10-05T15:33:32.843Z,53.26
2022-10-05T15:35:50.095Z,53.03
2022-10-05T15:38:07.841Z,53.71
2022-10-05T15:40:24.856Z,54.75
2022-10-05T15:42:42.149Z,54.65
2022-10-05T15:44:59.117Z,57.72
2022-10-05T15:47:17.354Z,59.13
2022-10-05T15:49:34.356Z,58.00
2022-10-05T15:51:51.691Z,59.03
2022-10-05T15:54:08.856Z,62.61
2022-10-05T15:56:25.884Z,64.81
2022-10-05T15:58:46.198Z,65.37
2022-10-05T16:01:03.409Z,67.06
2022-10-05T16:03:20.691Z,68.11
2022-10-05T16:05:39.006Z,68.95
2022-10-05T16:07:58.352Z,69.59
2022-10-05T16:10:15.603Z,69.56
2022-10-05T16:12:32.613Z,71.98
2022-10-05T16:14:49.795Z,72.50
2022-10-05T16:17:07.816Z,74.49
2022-10-05T16:19:26.123Z,74.49
2022-10-05T16:21:43.161Z,75.24
2022-10-05T16:24:02.401Z,76.49
2022-10-05T16:26:20.730Z,75.69
2022-10-05T16:28:38.057Z,76.08
2022-10-05T16:30:55.487Z,78.82
2022-10-05T16:33:12.393Z,76.61
2022-10-05T16:35:30.403Z,78.01
2022-10-05T16:37:47.443Z,78.47
2022-10-05T16:40:04.514Z,79.35
2022-10-05T16:42:21.779Z,79.82
2022-10-05T16:44:38.827Z,79.39
2022-10-05T16:46:55.941Z,80.90
2022-10-05T16:49:12.991Z,80.76
2022-10-05T16:51:29.969Z,81.59
2022-10-05T16:53:47.218Z,82.70
2022-10-05T16:56:04.073Z,83.07
2022-10-05T16:58:21.837Z,83.54
2022-10-05T17:00:39.065Z,83.44
2022-10-05T17:02:56.096Z,82.63
2022-10-05T17:05:13.395Z,84.73
2022-10-05T17:07:30.287Z,84.95
2022-10-05T17:09:47.614Z,84.27
2022-10-05T17:12:04.613Z,85.17
2022-10-05T17:14:22.880Z,85.38
2022-10-05T17:16:39.813Z,85.06
2022-10-05T17:18:56.804Z,85.69
2022-10-05T17:21:13.882Z,86.19
2022-10-05T17:23:31.071Z,85.82
2022-10-05T17:25:48.262Z,86.10
2022-10-05T17:28:05.533Z,86.39
2022-10-05T17:30:22.776Z,86.43
2022-10-05T17:32:39.837Z,87.27
2022-10-05T17:34:57.100Z,86.50
2022-10-05T17:37:15.344Z,87.37
2022-10-05T17:39:32.388Z,87.66
2022-10-05T17:41:50.681Z,88.14
2022-10-05T17:44:07.989Z,87.99
2022-10-05T17:46:26.011Z,87.64
2022-10-05T17:48:43.383Z,88.68
2022-10-05T17:51:00.414Z,87.91
2022-10-05T17:53:17.413Z,87.43
2022-10-05T17:55:35.212Z,88.53
2022-10-05T17:57:53.283Z,87.83
2022-10-05T18:00:10.397Z,88.36
2022-10-05T18:02:28.896Z,88.73
2022-10-05T18:04:47.866Z,89.70
2022-10-05T18:07:05.843Z,89.71
2022-10-05T18:09:23.135Z,89.78
2022-10-05T18:11:40.222Z,89.29
2022-10-05T18:13:58.274Z,88.06
2022-10-05T18:16:15.722Z,89.42
2022-10-05T18:18:33.996Z,89.65
2022-10-05T18:20:51.379Z,88.79
2022-10-05T18:23:09.444Z,88.13
2022-10-05T18:25:26.743Z,89.86
2022-10-05T18:27:44.965Z,89.00
2022-10-05T18:30:02.297Z,88.50
2022-10-05T18:32:20.609Z,88.19
2022-10-05T18:34:37.848Z,88.62
2022-10-05T18:36:55.362Z,90.43
2022-10-05T18:39:13.413Z,89.35
2022-10-05T18:41:30.296Z,89.30
2022-10-05T18:43:48.792Z,89.63
2022-10-05T18:46:06.148Z,89.33
2022-10-05T18:48:23.732Z,90.24
2022-10-05T18:50:41.084Z,90.39
2022-10-05T18:53:01.196Z,90.69
2022-10-05T18:55:18.465Z,91.01
2022-10-05T18:57:35.416Z,89.83
2022-10-05T18:59:52.669Z,89.65
2022-10-05T19:02:10.316Z,91.27
2022-10-05T19:04:27.595Z,90.48
2022-10-05T19:06:45.657Z,91.22
2022-10-05T19:09:02.723Z,90.89
2022-10-05T19:11:19.753Z,90.86
2022-10-05T19:13:37.131Z,89.56
2022-10-05T19:15:54.265Z,90.72
2022-10-05T19:18:11.375Z,91.64
2022-10-05T19:20:28.788Z,90.94
2022-10-05T19:22:45.809Z,91.03
2022-10-05T19:25:02.771Z,91.87
2022-10-05T19:27:21.051Z,91.56
2022-10-05T19:29:39.031Z,91.64
2022-10-05T19:31:56.740Z,91.65
2022-10-05T19:34:14.713Z,89.43
2022-10-05T19:36:33.098Z,91.27
2022-10-05T19:38:50.109Z,91.25
2022-10-05T19:41:07.162Z,91.72
2022-10-05T19:43:26.086Z,90.36
2022-10-05T19:45:43.352Z,91.24
2022-10-05T19:48:00.618Z,90.90
2022-10-05T19:50:17.855Z,90.70
2022-10-05T19:52:34.950Z,90.91
2022-10-05T19:54:52.327Z,91.50
2022-10-05T19:57:09.591Z,90.80
2022-10-05T19:59:26.703Z,91.51
2022-10-05T20:01:43.967Z,90.23
2022-10-05T20:04:02.295Z,91.45
2022-10-05T20:06:19.317Z,90.06
2022-10-05T20:08:37.366Z,91.79
2022-10-05T20:10:54.274Z,91.41
2022-10-05T20:13:11.161Z,90.71
2022-10-05T20:15:28.510Z,90.63
2022-10-05T20:17:45.410Z,91.52
2022-10-05T20:20:03.292Z,90.83
2022-10-05T20:22:20.408Z,92.21
2022-10-05T20:24:38.607Z,91.60
2022-10-05T20:26:55.731Z,91.91
2022-10-05T20:29:12.753Z,92.13
2022-10-05T20:31:29.924Z,90.55
2022-10-05T20:33:46.962Z,90.69
2022-10-05T20:36:03.922Z,91.94
2022-10-05T20:38:21.963Z,92.12
2022-10-05T20:40:38.998Z,90.92
2022-10-05T20:42:55.968Z,91.20
2022-10-05T20:45:13.090Z,91.64
2022-10-05T20:47:31.078Z,91.97
2022-10-05T20:49:48.052Z,91.36
2022-10-05T20:52:05.639Z,91.13
2022-10-05T20:54:26.353Z,90.90
2022-10-05T20:56:43.503Z,91.18
2022-10-05T20:59:00.729Z,91.21
2022-10-05T21:01:18.054Z,89.91
2022-10-05T21:03:34.988Z,91.24
2022-10-05T21:05:52.512Z,90.14
2022-10-05T21:08:09.869Z,89.84
2022-10-05T21:10:26.920Z,90.95
2022-10-05T21:12:44.204Z,89.83
2022-10-05T21:15:02.204Z,89.91
2022-10-05T21:17:19.213Z,89.92
2022-10-05T21:19:36.246Z,89.89
2022-10-05T21:21:54.023Z,90.57
2022-10-05T21:24:11.284Z,90.91
2022-10-05T21:26:28.336Z,90.25
2022-10-05T21:28:45.716Z,90.20
2022-10-05T21:31:02.733Z,90.85
2022-10-05T21:33:20.031Z,91.15
2022-10-05T21:35:37.091Z,90.87
2022-10-05T21:37:54.092Z,90.95
2022-10-05T21:40:11.171Z,90.83
2022-10-05T21:42:28.419Z,90.92
2022-10-05T21:44:45.648Z,91.36
2022-10-05T21:47:02.654Z,91.53
2022-10-05T21:49:19.991Z,91.24
2022-10-05T21:51:36.983Z,91.35
2022-10-05T21:53:54.174Z,90.89
2022-10-05T21:56:11.473Z,90.74
2022-10-05T21:58:28.980Z,90.13
2022-10-05T22:00:46.455Z,90.80
2022-10-05T22:03:06.692Z,90.72
2022-10-05T22:05:23.794Z,90.53
2022-10-05T22:07:40.869Z,90.40
2022-10-05T22:09:58.192Z,90.49
2022-10-05T22:12:15.260Z,90.63
2022-10-05T22:14:32.593Z,90.70
2022-10-05T22:16:49.795Z,91.01
2022-10-05T22:19:06.940Z,90.56
2022-10-05T22:21:25.946Z,91.01
2022-10-05T22:23:43.266Z,90.90
2022-10-05T22:26:00.396Z,90.97
2022-10-05T22:28:17.554Z,90.99
2022-10-05T22:30:35.628Z,91.18
2022-10-05T22:32:52.735Z,90.63
2022-10-05T22:35:13.861Z,90.91
2022-10-05T22:37:33.108Z,90.89
2022-10-05T22:39:50.323Z,90.70
2022-10-05T22:42:07.454Z,90.93
2022-10-05T22:44:25.337Z,90.74
2022-10-05T22:46:44.980Z,90.43
2022-10-05T22:49:02.002Z,90.28
2022-10-05T22:51:19.417Z,90.13
2022-10-05T22:53:37.758Z,90.45
2022-10-05T22:55:56.737Z,90.56
2022-10-05T22:58:13.863Z,90.74
2022-10-05T23:00:53.244Z,89.89
2022-10-05T23:03:07.856Z,90.74
2022-10-05T23:05:24.865Z,90.31
2022-10-05T23:07:41.926Z,90.11
2022-10-05T23:10:02.566Z,90.56
2022-10-05T23:12:22.344Z,90.04
2022-10-05T23:14:39.656Z,90.31
2022-10-05T23:16:57.283Z,90.92
2022-10-05T23:19:14.484Z,90.11
2022-10-05T23:21:31.456Z,90.51
2022-10-05T23:23:48.604Z,90.88
2022-10-05T23:26:05.554Z,90.40
2022-10-05T23:28:23.716Z,90.79
2022-10-05T23:30:41.840Z,89.95
2022-10-05T23:32:58.966Z,90.30
2022-10-05T23:35:16.933Z,90.37
2022-10-05T23:37:34.171Z,90.96
2022-10-05T23:39:51.209Z,90.77
2022-10-05T23:42:08.323Z,90.75
2022-10-05T23:44:25.300Z,90.96
2022-10-05T23:46:42.540Z,90.46
2022-10-05T23:48:59.456Z,90.92
2022-10-05T23:51:16.427Z,90.93
2022-10-05T23:53:33.371Z,91.92
2022-10-05T23:55:50.247Z,90.93
2022-10-05T23:58:08.214Z,91.33
